Gay Head, Massachusetts
Current Conditions -  °F | °C
As of 7:53 AM on Wednesday 22 Oct 2014 (Local Time) from KMVY Reporting Station
Overcast Overcast  
Wind Chill: 59°   Ceiling: 900
Heat Index: 59°   Visibility: 10mi
Dew Point: 57°   Wind: 13mph
Humidity: 93%   Direction: 40°NE
Pressure: 29.91"   Gusts: NA
Location:  41.3536°N, 70.7417°W
Report Text: KMVY 221153Z 04011KT 10SM BKN009 OVC016 15/14 A2991 RMK AO2 CIG 007V014 SLP128 T01500139 10150 20106 53001
Loading
Personal Weather Stations






























Interactive Weather Map
Tropical Storm Tracking
New forecast layout! Learn more

10-Day Weather Forecast

Advertisements
Track Severe Weather on mobile